KCNY

Canyonlands Field Airport

Moab, Utah, USA
METAR KCNY 230953Z AUTO 00000KT 10SM BKN080 OVC100 M02/M09 A2993 RMK AO2 SLP149 T10221094
Observed Flight Rules
Feb-23 @ 09:53 UTC (40 minutes ago) Visual Flight Rules
Wind Visibility Clouds
Calm 10 miles
  • Broken at 8,000' AGL
  • Overcast at 10,000' AGL
Temperatures Readings
Current -2°C / 28°F
Dewpoint -9°C / 16°F
Humidity 59%
Altimeter 29.93" Hg
Pressure 1014.9 hPa
Elevation 1390
METAR KCNY 230953Z AUTO 00000KT 10SM BKN080 OVC100 M02/M09 A2993 RMK AO2 SLP149 T10221094
Observed Flight Rules
Feb-23 @ 09:53 UTC
(40 minutes ago)
VFR
Wind Visibility
Calm 10 miles
Clouds
  • Broken at 8,000' AGL
  • Overcast at 10,000' AGL
Temperature Dewpoint
-2°C / 28°F -9°C / 16°F
Humidity Altimeter Pressure
59% 29.93" Hg 1014.9 hPa